sensor_id;sensor_type;location;lat;lon;timestamp;P1;durP1;ratioP1;P2;durP2;ratioP2
21677;SDS011;11000;50.360;7.582;2022-12-16T00:01:49;60.33;;;24.20;;
21677;SDS011;11000;50.360;7.582;2022-12-16T00:04:09;62.50;;;25.13;;
21677;SDS011;11000;50.360;7.582;2022-12-16T00:06:31;74.67;;;25.77;;
21677;SDS011;11000;50.360;7.582;2022-12-16T00:08:52;82.53;;;26.00;;
21677;SDS011;11000;50.360;7.582;2022-12-16T00:11:13;119.23;;;25.53;;
21677;SDS011;11000;50.360;7.582;2022-12-16T00:13:34;67.47;;;24.20;;
21677;SDS011;11000;50.360;7.582;2022-12-16T00:15:56;99.43;;;25.10;;
21677;SDS011;11000;50.360;7.582;2022-12-16T00:18:17;61.90;;;23.98;;
21677;SDS011;11000;50.360;7.582;2022-12-16T00:20:45;69.22;;;24.20;;
21677;SDS011;11000;50.360;7.582;2022-12-16T00:23:08;144.40;;;27.13;;
21677;SDS011;11000;50.360;7.582;2022-12-16T00:25:28;80.53;;;24.37;;
21677;SDS011;11000;50.360;7.582;2022-12-16T00:27:49;70.13;;;24.27;;
21677;SDS011;11000;50.360;7.582;2022-12-16T00:30:09;72.63;;;24.30;;
21677;SDS011;11000;50.360;7.582;2022-12-16T00:32:30;70.37;;;25.07;;
21677;SDS011;11000;50.360;7.582;2022-12-16T00:34:51;97.63;;;24.57;;
21677;SDS011;11000;50.360;7.582;2022-12-16T00:37:12;92.10;;;24.27;;
21677;SDS011;11000;50.360;7.582;2022-12-16T00:39:32;100.70;;;25.83;;
21677;SDS011;11000;50.360;7.582;2022-12-16T00:41:53;91.80;;;23.50;;
21677;SDS011;11000;50.360;7.582;2022-12-16T00:44:13;67.87;;;23.60;;
21677;SDS011;11000;50.360;7.582;2022-12-16T00:46:34;83.23;;;24.57;;
21677;SDS011;11000;50.360;7.582;2022-12-16T00:48:54;78.03;;;24.10;;
21677;SDS011;11000;50.360;7.582;2022-12-16T00:51:15;73.37;;;25.53;;
21677;SDS011;11000;50.360;7.582;2022-12-16T00:53:35;73.07;;;23.50;;
21677;SDS011;11000;50.360;7.582;2022-12-16T00:56:04;134.23;;;26.15;;
21677;SDS011;11000;50.360;7.582;2022-12-16T00:58:26;63.88;;;23.33;;
21677;SDS011;11000;50.360;7.582;2022-12-16T01:00:46;71.67;;;24.10;;
21677;SDS011;11000;50.360;7.582;2022-12-16T01:03:10;98.55;;;22.95;;
21677;SDS011;11000;50.360;7.582;2022-12-16T01:05:30;128.23;;;23.97;;
21677;SDS011;11000;50.360;7.582;2022-12-16T01:07:51;90.70;;;25.03;;
21677;SDS011;11000;50.360;7.582;2022-12-16T01:10:13;63.33;;;23.50;;
21677;SDS011;11000;50.360;7.582;2022-12-16T01:12:34;135.73;;;24.97;;
21677;SDS011;11000;50.360;7.582;2022-12-16T01:14:55;66.55;;;23.17;;
21677;SDS011;11000;50.360;7.582;2022-12-16T01:17:15;109.50;;;25.67;;
21677;SDS011;11000;50.360;7.582;2022-12-16T01:19:36;65.33;;;23.10;;
21677;SDS011;11000;50.360;7.582;2022-12-16T01:21:56;101.00;;;25.13;;
21677;SDS011;11000;50.360;7.582;2022-12-16T01:24:17;63.47;;;22.40;;
21677;SDS011;11000;50.360;7.582;2022-12-16T01:26:38;63.43;;;24.67;;
21677;SDS011;11000;50.360;7.582;2022-12-16T01:28:58;64.50;;;23.43;;
21677;SDS011;11000;50.360;7.582;2022-12-16T01:31:19;76.63;;;25.00;;
21677;SDS011;11000;50.360;7.582;2022-12-16T01:33:40;103.68;;;25.55;;
21677;SDS011;11000;50.360;7.582;2022-12-16T01:36:02;84.67;;;23.90;;
21677;SDS011;11000;50.360;7.582;2022-12-16T01:38:24;64.13;;;23.08;;
21677;SDS011;11000;50.360;7.582;2022-12-16T01:40:44;96.57;;;24.27;;
21677;SDS011;11000;50.360;7.582;2022-12-16T01:43:11;79.50;;;23.53;;
21677;SDS011;11000;50.360;7.582;2022-12-16T01:45:33;70.82;;;23.40;;
21677;SDS011;11000;50.360;7.582;2022-12-16T01:47:56;76.38;;;23.60;;
21677;SDS011;11000;50.360;7.582;2022-12-16T01:50:19;60.00;;;22.58;;
21677;SDS011;11000;50.360;7.582;2022-12-16T01:52:41;81.90;;;22.47;;
21677;SDS011;11000;50.360;7.582;2022-12-16T01:55:10;116.68;;;25.25;;
21677;SDS011;11000;50.360;7.582;2022-12-16T01:58:08;105.78;;;22.77;;
21677;SDS011;11000;50.360;7.582;2022-12-16T02:00:24;81.40;;;23.52;;
21677;SDS011;11000;50.360;7.582;2022-12-16T02:02:45;66.97;;;23.63;;
21677;SDS011;11000;50.360;7.582;2022-12-16T02:05:06;62.83;;;23.60;;
21677;SDS011;11000;50.360;7.582;2022-12-16T02:07:39;87.38;;;23.35;;
21677;SDS011;11000;50.360;7.582;2022-12-16T02:09:59;62.93;;;22.03;;
21677;SDS011;11000;50.360;7.582;2022-12-16T02:12:26;58.07;;;22.67;;
21677;SDS011;11000;50.360;7.582;2022-12-16T02:17:48;62.72;;;22.95;;
21677;SDS011;11000;50.360;7.582;2022-12-16T02:23:15;95.43;;;22.52;;
21677;SDS011;11000;50.360;7.582;2022-12-16T02:31:25;76.60;;;21.90;;
21677;SDS011;11000;50.360;7.582;2022-12-16T02:34:07;73.28;;;22.33;;
21677;SDS011;11000;50.360;7.582;2022-12-16T02:39:14;96.60;;;22.58;;
21677;SDS011;11000;50.360;7.582;2022-12-16T02:41:55;73.70;;;22.38;;
21677;SDS011;11000;50.360;7.582;2022-12-16T02:44:32;92.05;;;23.08;;
21677;SDS011;11000;50.360;7.582;2022-12-16T02:46:58;55.20;;;22.30;;
21677;SDS011;11000;50.360;7.582;2022-12-16T02:51:39;83.30;;;23.87;;
21677;SDS011;11000;50.360;7.582;2022-12-16T02:54:00;66.67;;;24.10;;
21677;SDS011;11000;50.360;7.582;2022-12-16T02:59:16;53.05;;;21.88;;
21677;SDS011;11000;50.360;7.582;2022-12-16T03:01:49;68.90;;;23.38;;
21677;SDS011;11000;50.360;7.582;2022-12-16T03:04:39;67.72;;;23.50;;
21677;SDS011;11000;50.360;7.582;2022-12-16T03:07:10;70.13;;;22.25;;
21677;SDS011;11000;50.360;7.582;2022-12-16T03:09:33;63.53;;;20.88;;
21677;SDS011;11000;50.360;7.582;2022-12-16T03:11:57;60.35;;;21.63;;
21677;SDS011;11000;50.360;7.582;2022-12-16T03:14:22;67.85;;;24.25;;
21677;SDS011;11000;50.360;7.582;2022-12-16T03:16:46;68.47;;;23.33;;
21677;SDS011;11000;50.360;7.582;2022-12-16T03:19:08;56.92;;;22.30;;
21677;SDS011;11000;50.360;7.582;2022-12-16T03:21:36;84.30;;;22.70;;
21677;SDS011;11000;50.360;7.582;2022-12-16T03:24:03;86.95;;;23.00;;
21677;SDS011;11000;50.360;7.582;2022-12-16T03:26:33;72.28;;;22.90;;
21677;SDS011;11000;50.360;7.582;2022-12-16T03:29:01;72.72;;;21.88;;
21677;SDS011;11000;50.360;7.582;2022-12-16T03:31:37;97.45;;;22.67;;
21677;SDS011;11000;50.360;7.582;2022-12-16T03:36:35;53.35;;;21.15;;
21677;SDS011;11000;50.360;7.582;2022-12-16T03:38:58;74.05;;;22.20;;
21677;SDS011;11000;50.360;7.582;2022-12-16T03:41:20;63.47;;;22.20;;
21677;SDS011;11000;50.360;7.582;2022-12-16T03:43:42;69.78;;;23.60;;
21677;SDS011;11000;50.360;7.582;2022-12-16T03:46:04;74.45;;;24.30;;
21677;SDS011;11000;50.360;7.582;2022-12-16T03:48:26;76.32;;;24.38;;
21677;SDS011;11000;50.360;7.582;2022-12-16T03:50:47;66.07;;;23.30;;
21677;SDS011;11000;50.360;7.582;2022-12-16T03:53:07;64.20;;;23.80;;
21677;SDS011;11000;50.360;7.582;2022-12-16T03:55:28;69.07;;;23.63;;
21677;SDS011;11000;50.360;7.582;2022-12-16T03:57:48;59.53;;;22.73;;
21677;SDS011;11000;50.360;7.582;2022-12-16T04:00:09;68.63;;;23.63;;
21677;SDS011;11000;50.360;7.582;2022-12-16T04:02:30;73.10;;;22.92;;
21677;SDS011;11000;50.360;7.582;2022-12-16T04:04:51;66.67;;;23.17;;
21677;SDS011;11000;50.360;7.582;2022-12-16T04:07:11;65.60;;;23.70;;
21677;SDS011;11000;50.360;7.582;2022-12-16T04:09:43;60.70;;;22.63;;
21677;SDS011;11000;50.360;7.582;2022-12-16T04:12:05;66.80;;;22.67;;
21677;SDS011;11000;50.360;7.582;2022-12-16T04:14:45;60.75;;;21.60;;
21677;SDS011;11000;50.360;7.582;2022-12-16T04:17:24;53.08;;;20.67;;
21677;SDS011;11000;50.360;7.582;2022-12-16T04:20:04;60.38;;;21.40;;
21677;SDS011;11000;50.360;7.582;2022-12-16T04:22:43;63.88;;;20.67;;
21677;SDS011;11000;50.360;7.582;2022-12-16T04:25:23;68.00;;;20.90;;
21677;SDS011;11000;50.360;7.582;2022-12-16T04:27:47;60.95;;;19.90;;
21677;SDS011;11000;50.360;7.582;2022-12-16T04:30:08;65.47;;;21.30;;
21677;SDS011;11000;50.360;7.582;2022-12-16T04:32:38;117.50;;;21.17;;
21677;SDS011;11000;50.360;7.582;2022-12-16T04:35:17;64.80;;;20.55;;
21677;SDS011;11000;50.360;7.582;2022-12-16T04:37:57;57.22;;;20.42;;
21677;SDS011;11000;50.360;7.582;2022-12-16T04:40:36;58.17;;;20.27;;
21677;SDS011;11000;50.360;7.582;2022-12-16T04:43:15;57.53;;;21.58;;
21677;SDS011;11000;50.360;7.582;2022-12-16T04:45:54;57.00;;;20.08;;
21677;SDS011;11000;50.360;7.582;2022-12-16T04:48:33;82.72;;;22.08;;
21677;SDS011;11000;50.360;7.582;2022-12-16T04:51:12;74.40;;;23.58;;
21677;SDS011;11000;50.360;7.582;2022-12-16T04:53:51;65.10;;;23.50;;
21677;SDS011;11000;50.360;7.582;2022-12-16T04:56:30;86.22;;;21.67;;
21677;SDS011;11000;50.360;7.582;2022-12-16T04:59:09;54.00;;;19.90;;
21677;SDS011;11000;50.360;7.582;2022-12-16T05:01:48;62.78;;;21.77;;
21677;SDS011;11000;50.360;7.582;2022-12-16T05:04:27;66.95;;;21.13;;
21677;SDS011;11000;50.360;7.582;2022-12-16T05:07:06;76.60;;;21.50;;
21677;SDS011;11000;50.360;7.582;2022-12-16T05:09:45;68.40;;;20.67;;
21677;SDS011;11000;50.360;7.582;2022-12-16T05:12:25;82.45;;;20.42;;
21677;SDS011;11000;50.360;7.582;2022-12-16T05:15:04;64.43;;;19.45;;
21677;SDS011;11000;50.360;7.582;2022-12-16T05:17:43;65.95;;;22.05;;
21677;SDS011;11000;50.360;7.582;2022-12-16T05:20:22;70.25;;;21.90;;
21677;SDS011;11000;50.360;7.582;2022-12-16T05:23:01;73.18;;;21.08;;
21677;SDS011;11000;50.360;7.582;2022-12-16T05:25:41;71.85;;;21.58;;
21677;SDS011;11000;50.360;7.582;2022-12-16T05:28:20;73.30;;;20.05;;
21677;SDS011;11000;50.360;7.582;2022-12-16T05:30:59;50.83;;;19.48;;
21677;SDS011;11000;50.360;7.582;2022-12-16T05:33:38;51.13;;;19.25;;
21677;SDS011;11000;50.360;7.582;2022-12-16T05:36:17;62.03;;;18.67;;
21677;SDS011;11000;50.360;7.582;2022-12-16T05:38:57;56.75;;;19.38;;
21677;SDS011;11000;50.360;7.582;2022-12-16T05:41:36;52.15;;;19.10;;
21677;SDS011;11000;50.360;7.582;2022-12-16T05:44:15;49.97;;;18.55;;
21677;SDS011;11000;50.360;7.582;2022-12-16T05:46:54;63.42;;;21.92;;
21677;SDS011;11000;50.360;7.582;2022-12-16T05:49:33;62.20;;;20.65;;
21677;SDS011;11000;50.360;7.582;2022-12-16T05:52:12;77.63;;;20.60;;
21677;SDS011;11000;50.360;7.582;2022-12-16T05:54:51;58.33;;;21.33;;
21677;SDS011;11000;50.360;7.582;2022-12-16T05:57:31;55.20;;;21.33;;
21677;SDS011;11000;50.360;7.582;2022-12-16T06:00:10;59.47;;;21.17;;
21677;SDS011;11000;50.360;7.582;2022-12-16T06:02:49;79.15;;;20.58;;
21677;SDS011;11000;50.360;7.582;2022-12-16T06:05:29;54.75;;;20.15;;
21677;SDS011;11000;50.360;7.582;2022-12-16T06:08:08;76.75;;;21.50;;
21677;SDS011;11000;50.360;7.582;2022-12-16T06:10:47;58.42;;;20.77;;
21677;SDS011;11000;50.360;7.582;2022-12-16T06:13:26;59.00;;;21.33;;
21677;SDS011;11000;50.360;7.582;2022-12-16T06:16:05;62.83;;;21.42;;
21677;SDS011;11000;50.360;7.582;2022-12-16T06:18:44;69.68;;;22.25;;
21677;SDS011;11000;50.360;7.582;2022-12-16T06:21:23;67.53;;;19.42;;
21677;SDS011;11000;50.360;7.582;2022-12-16T06:24:02;142.02;;;52.70;;
21677;SDS011;11000;50.360;7.582;2022-12-16T06:26:41;65.35;;;23.48;;
21677;SDS011;11000;50.360;7.582;2022-12-16T06:29:20;60.88;;;19.58;;
21677;SDS011;11000;50.360;7.582;2022-12-16T06:31:59;67.57;;;21.52;;
21677;SDS011;11000;50.360;7.582;2022-12-16T06:34:38;57.70;;;21.13;;
21677;SDS011;11000;50.360;7.582;2022-12-16T06:37:18;60.38;;;22.27;;
21677;SDS011;11000;50.360;7.582;2022-12-16T06:39:57;56.03;;;20.92;;
21677;SDS011;11000;50.360;7.582;2022-12-16T06:42:39;59.78;;;19.83;;
21677;SDS011;11000;50.360;7.582;2022-12-16T06:45:19;66.78;;;22.25;;
21677;SDS011;11000;50.360;7.582;2022-12-16T06:47:58;83.60;;;24.00;;
21677;SDS011;11000;50.360;7.582;2022-12-16T06:50:37;56.38;;;21.40;;
21677;SDS011;11000;50.360;7.582;2022-12-16T06:53:16;73.47;;;21.13;;
21677;SDS011;11000;50.360;7.582;2022-12-16T06:55:55;59.78;;;20.75;;
21677;SDS011;11000;50.360;7.582;2022-12-16T06:58:35;66.40;;;22.10;;
21677;SDS011;11000;50.360;7.582;2022-12-16T07:01:14;67.68;;;22.45;;
21677;SDS011;11000;50.360;7.582;2022-12-16T07:03:53;58.40;;;22.83;;
21677;SDS011;11000;50.360;7.582;2022-12-16T07:06:32;67.20;;;22.90;;
21677;SDS011;11000;50.360;7.582;2022-12-16T07:09:11;68.97;;;21.88;;
21677;SDS011;11000;50.360;7.582;2022-12-16T07:11:50;71.32;;;21.20;;
21677;SDS011;11000;50.360;7.582;2022-12-16T07:14:29;63.80;;;20.85;;
21677;SDS011;11000;50.360;7.582;2022-12-16T07:17:08;66.70;;;21.55;;
21677;SDS011;11000;50.360;7.582;2022-12-16T07:19:47;64.22;;;21.27;;
21677;SDS011;11000;50.360;7.582;2022-12-16T07:22:26;56.60;;;18.85;;
21677;SDS011;11000;50.360;7.582;2022-12-16T07:25:05;56.72;;;20.05;;
21677;SDS011;11000;50.360;7.582;2022-12-16T07:27:45;56.95;;;22.02;;
21677;SDS011;11000;50.360;7.582;2022-12-16T07:30:24;73.30;;;21.45;;
21677;SDS011;11000;50.360;7.582;2022-12-16T07:33:04;62.70;;;20.70;;
21677;SDS011;11000;50.360;7.582;2022-12-16T07:35:43;62.90;;;21.13;;
21677;SDS011;11000;50.360;7.582;2022-12-16T07:38:22;72.82;;;21.48;;
21677;SDS011;11000;50.360;7.582;2022-12-16T07:41:03;84.78;;;20.65;;
21677;SDS011;11000;50.360;7.582;2022-12-16T07:43:42;70.85;;;24.73;;
21677;SDS011;11000;50.360;7.582;2022-12-16T07:46:21;61.03;;;21.58;;
21677;SDS011;11000;50.360;7.582;2022-12-16T07:49:00;61.17;;;21.02;;
21677;SDS011;11000;50.360;7.582;2022-12-16T07:51:39;61.60;;;21.73;;
21677;SDS011;11000;50.360;7.582;2022-12-16T07:54:19;62.15;;;21.55;;
21677;SDS011;11000;50.360;7.582;2022-12-16T07:56:58;59.88;;;21.17;;
21677;SDS011;11000;50.360;7.582;2022-12-16T07:59:37;59.95;;;21.58;;
21677;SDS011;11000;50.360;7.582;2022-12-16T08:02:16;61.58;;;21.50;;
21677;SDS011;11000;50.360;7.582;2022-12-16T08:04:55;66.55;;;20.50;;
21677;SDS011;11000;50.360;7.582;2022-12-16T08:07:36;69.85;;;21.95;;
21677;SDS011;11000;50.360;7.582;2022-12-16T08:10:17;56.55;;;21.10;;
21677;SDS011;11000;50.360;7.582;2022-12-16T08:13:03;53.65;;;20.65;;
21677;SDS011;11000;50.360;7.582;2022-12-16T08:15:43;62.72;;;21.05;;
21677;SDS011;11000;50.360;7.582;2022-12-16T08:18:22;57.50;;;21.60;;
21677;SDS011;11000;50.360;7.582;2022-12-16T08:21:01;64.18;;;23.13;;
21677;SDS011;11000;50.360;7.582;2022-12-16T08:23:41;51.30;;;19.75;;
21677;SDS011;11000;50.360;7.582;2022-12-16T08:26:20;55.38;;;19.55;;
21677;SDS011;11000;50.360;7.582;2022-12-16T08:29:00;58.28;;;20.60;;
21677;SDS011;11000;50.360;7.582;2022-12-16T08:31:39;69.18;;;20.00;;
21677;SDS011;11000;50.360;7.582;2022-12-16T08:34:18;58.10;;;21.00;;
21677;SDS011;11000;50.360;7.582;2022-12-16T08:36:57;71.28;;;23.67;;
21677;SDS011;11000;50.360;7.582;2022-12-16T08:39:36;64.97;;;20.45;;
21677;SDS011;11000;50.360;7.582;2022-12-16T08:42:15;64.72;;;21.58;;
21677;SDS011;11000;50.360;7.582;2022-12-16T08:44:54;63.97;;;21.98;;
21677;SDS011;11000;50.360;7.582;2022-12-16T08:47:33;64.40;;;21.50;;
21677;SDS011;11000;50.360;7.582;2022-12-16T08:50:12;76.72;;;20.48;;
21677;SDS011;11000;50.360;7.582;2022-12-16T08:52:52;80.35;;;21.90;;
21677;SDS011;11000;50.360;7.582;2022-12-16T08:55:31;100.28;;;29.80;;
21677;SDS011;11000;50.360;7.582;2022-12-16T08:58:10;86.45;;;23.83;;
21677;SDS011;11000;50.360;7.582;2022-12-16T09:00:49;80.80;;;21.83;;
21677;SDS011;11000;50.360;7.582;2022-12-16T09:03:28;70.97;;;21.70;;
21677;SDS011;11000;50.360;7.582;2022-12-16T09:06:07;72.60;;;22.42;;
21677;SDS011;11000;50.360;7.582;2022-12-16T09:08:46;78.57;;;21.60;;
21677;SDS011;11000;50.360;7.582;2022-12-16T09:11:25;69.80;;;22.45;;
21677;SDS011;11000;50.360;7.582;2022-12-16T09:14:04;77.63;;;22.83;;
21677;SDS011;11000;50.360;7.582;2022-12-16T09:16:43;78.68;;;22.83;;
21677;SDS011;11000;50.360;7.582;2022-12-16T09:19:22;75.18;;;21.60;;
21677;SDS011;11000;50.360;7.582;2022-12-16T09:22:01;81.72;;;40.28;;
21677;SDS011;11000;50.360;7.582;2022-12-16T09:24:40;69.75;;;22.63;;
21677;SDS011;11000;50.360;7.582;2022-12-16T09:27:19;63.45;;;22.23;;
21677;SDS011;11000;50.360;7.582;2022-12-16T09:29:59;74.68;;;24.00;;
21677;SDS011;11000;50.360;7.582;2022-12-16T09:32:41;69.88;;;23.75;;
21677;SDS011;11000;50.360;7.582;2022-12-16T09:35:21;64.13;;;22.70;;
21677;SDS011;11000;50.360;7.582;2022-12-16T09:38:00;80.07;;;25.42;;
21677;SDS011;11000;50.360;7.582;2022-12-16T09:40:40;75.80;;;24.08;;
21677;SDS011;11000;50.360;7.582;2022-12-16T09:43:30;65.18;;;23.00;;
21677;SDS011;11000;50.360;7.582;2022-12-16T09:49:32;75.13;;;23.73;;
21677;SDS011;11000;50.360;7.582;2022-12-16T09:52:24;62.45;;;21.48;;
21677;SDS011;11000;50.360;7.582;2022-12-16T09:55:05;80.40;;;25.13;;
21677;SDS011;11000;50.360;7.582;2022-12-16T09:58:07;62.53;;;23.75;;
21677;SDS011;11000;50.360;7.582;2022-12-16T10:00:49;72.80;;;24.20;;
21677;SDS011;11000;50.360;7.582;2022-12-16T10:03:30;76.72;;;23.63;;
21677;SDS011;11000;50.360;7.582;2022-12-16T10:06:21;73.97;;;24.98;;
21677;SDS011;11000;50.360;7.582;2022-12-16T10:14:57;64.50;;;22.65;;
21677;SDS011;11000;50.360;7.582;2022-12-16T10:17:43;64.90;;;22.20;;
21677;SDS011;11000;50.360;7.582;2022-12-16T10:20:40;68.57;;;24.38;;
21677;SDS011;11000;50.360;7.582;2022-12-16T10:23:26;70.10;;;23.27;;
21677;SDS011;11000;50.360;7.582;2022-12-16T10:26:41;66.65;;;23.27;;
21677;SDS011;11000;50.360;7.582;2022-12-16T10:29:50;64.82;;;22.85;;
21677;SDS011;11000;50.360;7.582;2022-12-16T10:32:44;73.63;;;25.17;;
21677;SDS011;11000;50.360;7.582;2022-12-16T10:35:35;62.92;;;23.35;;
21677;SDS011;11000;50.360;7.582;2022-12-16T10:38:40;60.05;;;22.45;;
21677;SDS011;11000;50.360;7.582;2022-12-16T10:41:28;68.60;;;24.27;;
21677;SDS011;11000;50.360;7.582;2022-12-16T10:44:21;66.13;;;24.15;;
21677;SDS011;11000;50.360;7.582;2022-12-16T10:47:09;69.82;;;23.73;;
21677;SDS011;11000;50.360;7.582;2022-12-16T10:49:49;69.40;;;24.13;;
21677;SDS011;11000;50.360;7.582;2022-12-16T10:52:31;65.15;;;24.33;;
21677;SDS011;11000;50.360;7.582;2022-12-16T10:58:24;66.20;;;23.60;;
21677;SDS011;11000;50.360;7.582;2022-12-16T11:01:31;60.08;;;22.05;;
21677;SDS011;11000;50.360;7.582;2022-12-16T11:10:42;68.32;;;24.05;;
21677;SDS011;11000;50.360;7.582;2022-12-16T11:13:30;74.43;;;24.55;;
21677;SDS011;11000;50.360;7.582;2022-12-16T11:16:12;73.95;;;24.00;;
21677;SDS011;11000;50.360;7.582;2022-12-16T11:18:53;70.82;;;24.95;;
21677;SDS011;11000;50.360;7.582;2022-12-16T11:21:32;62.55;;;23.60;;
21677;SDS011;11000;50.360;7.582;2022-12-16T11:24:17;73.72;;;25.02;;
21677;SDS011;11000;50.360;7.582;2022-12-16T11:26:59;71.88;;;25.90;;
21677;SDS011;11000;50.360;7.582;2022-12-16T11:32:37;64.63;;;23.77;;
21677;SDS011;11000;50.360;7.582;2022-12-16T11:35:20;66.13;;;23.55;;
21677;SDS011;11000;50.360;7.582;2022-12-16T11:38:09;57.90;;;21.65;;
21677;SDS011;11000;50.360;7.582;2022-12-16T11:40:56;67.93;;;24.73;;
21677;SDS011;11000;50.360;7.582;2022-12-16T11:43:45;71.90;;;25.52;;
21677;SDS011;11000;50.360;7.582;2022-12-16T11:46:29;75.03;;;26.90;;
21677;SDS011;11000;50.360;7.582;2022-12-16T11:49:12;71.22;;;25.65;;
21677;SDS011;11000;50.360;7.582;2022-12-16T11:52:05;57.00;;;23.98;;
21677;SDS011;11000;50.360;7.582;2022-12-16T11:54:56;67.00;;;25.00;;
21677;SDS011;11000;50.360;7.582;2022-12-16T11:57:47;62.38;;;23.25;;
21677;SDS011;11000;50.360;7.582;2022-12-16T12:00:38;64.22;;;24.55;;
21677;SDS011;11000;50.360;7.582;2022-12-16T12:03:23;69.03;;;24.55;;
21677;SDS011;11000;50.360;7.582;2022-12-16T12:06:06;70.95;;;25.20;;
21677;SDS011;11000;50.360;7.582;2022-12-16T12:11:50;65.40;;;25.85;;
21677;SDS011;11000;50.360;7.582;2022-12-16T12:17:23;69.43;;;25.58;;
21677;SDS011;11000;50.360;7.582;2022-12-16T12:23:10;63.35;;;24.25;;
21677;SDS011;11000;50.360;7.582;2022-12-16T12:26:05;61.97;;;24.90;;
21677;SDS011;11000;50.360;7.582;2022-12-16T12:35:21;64.88;;;24.92;;
21677;SDS011;11000;50.360;7.582;2022-12-16T12:38:22;71.30;;;25.83;;
21677;SDS011;11000;50.360;7.582;2022-12-16T12:41:33;66.47;;;24.33;;
21677;SDS011;11000;50.360;7.582;2022-12-16T12:44:47;62.92;;;25.20;;
21677;SDS011;11000;50.360;7.582;2022-12-16T12:47:43;71.75;;;26.33;;
21677;SDS011;11000;50.360;7.582;2022-12-16T12:50:39;70.20;;;25.25;;
21677;SDS011;11000;50.360;7.582;2022-12-16T12:53:32;65.60;;;25.20;;
21677;SDS011;11000;50.360;7.582;2022-12-16T12:56:46;65.30;;;24.77;;
21677;SDS011;11000;50.360;7.582;2022-12-16T12:59:35;71.90;;;26.50;;
21677;SDS011;11000;50.360;7.582;2022-12-16T13:02:41;69.63;;;25.83;;
21677;SDS011;11000;50.360;7.582;2022-12-16T13:05:31;76.45;;;25.80;;
21677;SDS011;11000;50.360;7.582;2022-12-16T13:11:11;71.18;;;26.80;;
21677;SDS011;11000;50.360;7.582;2022-12-16T13:13:51;67.03;;;25.38;;
21677;SDS011;11000;50.360;7.582;2022-12-16T13:22:26;66.65;;;25.40;;
21677;SDS011;11000;50.360;7.582;2022-12-16T13:25:25;65.20;;;26.92;;
21677;SDS011;11000;50.360;7.582;2022-12-16T13:28:16;64.13;;;25.08;;
21677;SDS011;11000;50.360;7.582;2022-12-16T13:31:01;69.28;;;25.98;;
21677;SDS011;11000;50.360;7.582;2022-12-16T13:33:47;69.63;;;27.98;;
21677;SDS011;11000;50.360;7.582;2022-12-16T13:36:32;70.05;;;26.17;;
21677;SDS011;11000;50.360;7.582;2022-12-16T13:42:01;72.18;;;27.20;;
21677;SDS011;11000;50.360;7.582;2022-12-16T13:47:32;69.38;;;26.80;;
21677;SDS011;11000;50.360;7.582;2022-12-16T13:50:33;64.05;;;26.25;;
21677;SDS011;11000;50.360;7.582;2022-12-16T13:53:16;74.07;;;28.02;;
21677;SDS011;11000;50.360;7.582;2022-12-16T13:55:58;80.30;;;31.40;;
21677;SDS011;11000;50.360;7.582;2022-12-16T13:58:51;78.13;;;29.92;;
21677;SDS011;11000;50.360;7.582;2022-12-16T14:01:40;72.38;;;27.52;;
21677;SDS011;11000;50.360;7.582;2022-12-16T14:04:28;71.00;;;27.73;;
21677;SDS011;11000;50.360;7.582;2022-12-16T14:07:17;76.47;;;28.15;;
21677;SDS011;11000;50.360;7.582;2022-12-16T14:10:00;78.28;;;27.73;;
21677;SDS011;11000;50.360;7.582;2022-12-16T14:12:45;74.53;;;28.92;;
21677;SDS011;11000;50.360;7.582;2022-12-16T14:18:42;82.35;;;29.35;;
21677;SDS011;11000;50.360;7.582;2022-12-16T14:24:36;74.57;;;28.83;;
21677;SDS011;11000;50.360;7.582;2022-12-16T14:27:17;69.15;;;27.88;;
21677;SDS011;11000;50.360;7.582;2022-12-16T14:29:58;78.30;;;30.23;;
21677;SDS011;11000;50.360;7.582;2022-12-16T14:32:38;76.85;;;29.60;;
21677;SDS011;11000;50.360;7.582;2022-12-16T14:35:18;84.78;;;31.20;;
21677;SDS011;11000;50.360;7.582;2022-12-16T14:38:11;84.32;;;29.17;;
21677;SDS011;11000;50.360;7.582;2022-12-16T14:41:01;76.88;;;29.33;;
21677;SDS011;11000;50.360;7.582;2022-12-16T14:43:41;77.38;;;29.17;;
21677;SDS011;11000;50.360;7.582;2022-12-16T14:46:28;71.90;;;29.52;;
21677;SDS011;11000;50.360;7.582;2022-12-16T14:49:20;81.50;;;29.08;;
21677;SDS011;11000;50.360;7.582;2022-12-16T14:52:26;83.55;;;29.88;;
21677;SDS011;11000;50.360;7.582;2022-12-16T14:55:18;66.95;;;28.50;;
21677;SDS011;11000;50.360;7.582;2022-12-16T15:00:43;83.10;;;30.27;;
21677;SDS011;11000;50.360;7.582;2022-12-16T15:03:36;82.88;;;30.05;;
21677;SDS011;11000;50.360;7.582;2022-12-16T15:06:23;78.00;;;28.45;;
21677;SDS011;11000;50.360;7.582;2022-12-16T15:09:05;79.55;;;31.33;;
21677;SDS011;11000;50.360;7.582;2022-12-16T15:11:50;82.97;;;29.55;;
21677;SDS011;11000;50.360;7.582;2022-12-16T15:14:32;75.30;;;29.15;;
21677;SDS011;11000;50.360;7.582;2022-12-16T15:17:17;82.32;;;30.42;;
21677;SDS011;11000;50.360;7.582;2022-12-16T15:20:21;76.60;;;29.25;;
21677;SDS011;11000;50.360;7.582;2022-12-16T15:23:17;77.55;;;30.13;;
21677;SDS011;11000;50.360;7.582;2022-12-16T15:25:58;85.50;;;29.48;;
21677;SDS011;11000;50.360;7.582;2022-12-16T15:28:38;85.07;;;30.67;;
21677;SDS011;11000;50.360;7.582;2022-12-16T15:31:25;83.55;;;30.80;;
21677;SDS011;11000;50.360;7.582;2022-12-16T15:34:15;79.95;;;29.38;;
21677;SDS011;11000;50.360;7.582;2022-12-16T15:36:58;85.70;;;30.95;;
21677;SDS011;11000;50.360;7.582;2022-12-16T15:39:39;89.72;;;31.85;;
21677;SDS011;11000;50.360;7.582;2022-12-16T15:42:29;88.60;;;31.75;;
21677;SDS011;11000;50.360;7.582;2022-12-16T15:45:17;77.87;;;30.17;;
21677;SDS011;11000;50.360;7.582;2022-12-16T15:48:09;87.05;;;30.50;;
21677;SDS011;11000;50.360;7.582;2022-12-16T15:50:59;88.93;;;31.60;;
21677;SDS011;11000;50.360;7.582;2022-12-16T15:53:38;88.82;;;33.38;;
21677;SDS011;11000;50.360;7.582;2022-12-16T15:56:18;85.95;;;30.17;;
21677;SDS011;11000;50.360;7.582;2022-12-16T16:02:14;93.72;;;31.63;;
21677;SDS011;11000;50.360;7.582;2022-12-16T16:04:59;89.97;;;30.67;;
21677;SDS011;11000;50.360;7.582;2022-12-16T16:07:38;90.30;;;30.83;;
21677;SDS011;11000;50.360;7.582;2022-12-16T16:10:19;88.35;;;31.00;;
21677;SDS011;11000;50.360;7.582;2022-12-16T16:12:59;90.57;;;32.28;;
21677;SDS011;11000;50.360;7.582;2022-12-16T16:15:38;95.50;;;33.75;;
21677;SDS011;11000;50.360;7.582;2022-12-16T16:18:17;90.30;;;31.85;;
21677;SDS011;11000;50.360;7.582;2022-12-16T16:20:56;96.93;;;32.22;;
21677;SDS011;11000;50.360;7.582;2022-12-16T16:23:35;97.00;;;31.73;;
21677;SDS011;11000;50.360;7.582;2022-12-16T16:26:15;86.80;;;31.85;;
21677;SDS011;11000;50.360;7.582;2022-12-16T16:28:57;102.45;;;32.95;;
21677;SDS011;11000;50.360;7.582;2022-12-16T16:31:36;92.05;;;32.90;;
21677;SDS011;11000;50.360;7.582;2022-12-16T16:34:15;88.25;;;31.73;;
21677;SDS011;11000;50.360;7.582;2022-12-16T16:36:55;91.60;;;32.20;;
21677;SDS011;11000;50.360;7.582;2022-12-16T16:39:35;82.78;;;32.00;;
21677;SDS011;11000;50.360;7.582;2022-12-16T16:42:14;97.15;;;34.15;;
21677;SDS011;11000;50.360;7.582;2022-12-16T16:44:53;89.00;;;32.80;;
21677;SDS011;11000;50.360;7.582;2022-12-16T16:47:32;89.53;;;33.15;;
21677;SDS011;11000;50.360;7.582;2022-12-16T16:50:14;96.72;;;33.42;;